sensor_id;sensor_type;location;lat;lon;timestamp;temperature;humidity
29363;DHT22;16349;53.672;10.014;2023-04-24T00:00:46;12.20;99.90
29363;DHT22;16349;53.672;10.014;2023-04-24T00:03:14;12.20;99.90
29363;DHT22;16349;53.672;10.014;2023-04-24T00:05:42;12.20;99.90
29363;DHT22;16349;53.672;10.014;2023-04-24T00:08:09;12.20;99.90
29363;DHT22;16349;53.672;10.014;2023-04-24T00:10:36;12.20;99.90
29363;DHT22;16349;53.672;10.014;2023-04-24T00:13:06;12.20;99.90
29363;DHT22;16349;53.672;10.014;2023-04-24T00:15:32;12.10;99.90
29363;DHT22;16349;53.672;10.014;2023-04-24T00:17:59;12.10;99.90
29363;DHT22;16349;53.672;10.014;2023-04-24T00:20:28;12.10;99.90
29363;DHT22;16349;53.672;10.014;2023-04-24T00:22:59;12.10;99.90
29363;DHT22;16349;53.672;10.014;2023-04-24T00:25:26;12.10;99.90
29363;DHT22;16349;53.672;10.014;2023-04-24T00:27:53;12.10;99.90
29363;DHT22;16349;53.672;10.014;2023-04-24T00:30:20;12.10;99.90
29363;DHT22;16349;53.672;10.014;2023-04-24T00:32:47;12.00;99.90
29363;DHT22;16349;53.672;10.014;2023-04-24T00:35:14;12.00;99.90
29363;DHT22;16349;53.672;10.014;2023-04-24T00:37:42;12.00;99.90
29363;DHT22;16349;53.672;10.014;2023-04-24T00:40:11;12.00;99.90
29363;DHT22;16349;53.672;10.014;2023-04-24T00:42:38;12.00;99.90
29363;DHT22;16349;53.672;10.014;2023-04-24T00:45:07;12.00;99.90
29363;DHT22;16349;53.672;10.014;2023-04-24T00:47:34;12.00;99.90
29363;DHT22;16349;53.672;10.014;2023-04-24T00:50:01;12.00;99.90
29363;DHT22;16349;53.672;10.014;2023-04-24T00:52:29;11.90;99.90
29363;DHT22;16349;53.672;10.014;2023-04-24T00:54:57;11.90;99.90
29363;DHT22;16349;53.672;10.014;2023-04-24T00:57:26;12.00;99.90
29363;DHT22;16349;53.672;10.014;2023-04-24T00:59:53;12.00;99.90
29363;DHT22;16349;53.672;10.014;2023-04-24T01:02:21;12.00;99.90
29363;DHT22;16349;53.672;10.014;2023-04-24T01:04:51;11.90;99.90
29363;DHT22;16349;53.672;10.014;2023-04-24T01:07:19;11.90;99.90
29363;DHT22;16349;53.672;10.014;2023-04-24T01:09:47;11.90;99.90
29363;DHT22;16349;53.672;10.014;2023-04-24T01:12:17;11.80;99.90
29363;DHT22;16349;53.672;10.014;2023-04-24T01:14:46;11.80;99.90
29363;DHT22;16349;53.672;10.014;2023-04-24T01:17:15;11.80;99.90
29363;DHT22;16349;53.672;10.014;2023-04-24T01:19:42;11.80;99.90
29363;DHT22;16349;53.672;10.014;2023-04-24T01:22:13;11.70;99.90
29363;DHT22;16349;53.672;10.014;2023-04-24T01:24:40;11.70;99.90
29363;DHT22;16349;53.672;10.014;2023-04-24T01:27:08;11.70;99.90
29363;DHT22;16349;53.672;10.014;2023-04-24T01:29:36;11.70;99.90
29363;DHT22;16349;53.672;10.014;2023-04-24T01:32:04;11.70;99.90
29363;DHT22;16349;53.672;10.014;2023-04-24T01:34:32;11.70;99.90
29363;DHT22;16349;53.672;10.014;2023-04-24T01:36:59;11.60;99.90
29363;DHT22;16349;53.672;10.014;2023-04-24T01:39:27;11.70;99.90
29363;DHT22;16349;53.672;10.014;2023-04-24T01:41:55;11.60;99.90
29363;DHT22;16349;53.672;10.014;2023-04-24T01:44:23;11.60;99.90
29363;DHT22;16349;53.672;10.014;2023-04-24T01:46:49;11.60;99.90
29363;DHT22;16349;53.672;10.014;2023-04-24T01:49:17;11.60;99.90
29363;DHT22;16349;53.672;10.014;2023-04-24T01:51:44;11.60;99.90
29363;DHT22;16349;53.672;10.014;2023-04-24T01:54:11;11.60;99.90
29363;DHT22;16349;53.672;10.014;2023-04-24T01:56:42;11.70;99.90
29363;DHT22;16349;53.672;10.014;2023-04-24T01:59:10;11.70;99.90
29363;DHT22;16349;53.672;10.014;2023-04-24T02:01:38;11.70;99.90
29363;DHT22;16349;53.672;10.014;2023-04-24T02:04:06;11.70;99.90
29363;DHT22;16349;53.672;10.014;2023-04-24T02:06:34;11.70;99.90
29363;DHT22;16349;53.672;10.014;2023-04-24T02:09:02;11.60;99.90
29363;DHT22;16349;53.672;10.014;2023-04-24T02:11:29;11.60;99.90
29363;DHT22;16349;53.672;10.014;2023-04-24T02:13:58;11.60;99.90
29363;DHT22;16349;53.672;10.014;2023-04-24T02:16:25;11.60;99.90
29363;DHT22;16349;53.672;10.014;2023-04-24T02:18:52;11.60;99.90
29363;DHT22;16349;53.672;10.014;2023-04-24T02:21:19;11.60;99.90
29363;DHT22;16349;53.672;10.014;2023-04-24T02:23:46;11.60;99.90
29363;DHT22;16349;53.672;10.014;2023-04-24T02:26:13;11.50;99.90
29363;DHT22;16349;53.672;10.014;2023-04-24T02:28:40;11.60;99.90
29363;DHT22;16349;53.672;10.014;2023-04-24T02:31:08;11.50;99.90
29363;DHT22;16349;53.672;10.014;2023-04-24T02:33:35;11.50;99.90
29363;DHT22;16349;53.672;10.014;2023-04-24T02:36:03;11.50;99.90
29363;DHT22;16349;53.672;10.014;2023-04-24T02:38:29;11.50;99.90
29363;DHT22;16349;53.672;10.014;2023-04-24T02:40:56;11.50;99.90
29363;DHT22;16349;53.672;10.014;2023-04-24T02:43:25;11.40;99.90
29363;DHT22;16349;53.672;10.014;2023-04-24T02:45:53;11.40;99.90
29363;DHT22;16349;53.672;10.014;2023-04-24T02:48:42;11.40;99.90
29363;DHT22;16349;53.672;10.014;2023-04-24T02:51:09;11.40;99.90
29363;DHT22;16349;53.672;10.014;2023-04-24T02:53:36;11.30;99.90
29363;DHT22;16349;53.672;10.014;2023-04-24T02:56:04;11.30;99.90
29363;DHT22;16349;53.672;10.014;2023-04-24T02:58:31;11.30;99.90
29363;DHT22;16349;53.672;10.014;2023-04-24T03:00:58;11.20;99.90
29363;DHT22;16349;53.672;10.014;2023-04-24T03:03:26;11.20;99.90
29363;DHT22;16349;53.672;10.014;2023-04-24T03:05:54;11.20;99.90
29363;DHT22;16349;53.672;10.014;2023-04-24T03:08:21;11.20;99.90
29363;DHT22;16349;53.672;10.014;2023-04-24T03:10:48;11.20;99.90
29363;DHT22;16349;53.672;10.014;2023-04-24T03:13:15;11.10;99.90
29363;DHT22;16349;53.672;10.014;2023-04-24T03:15:42;11.20;99.90
29363;DHT22;16349;53.672;10.014;2023-04-24T03:18:10;11.10;99.90
29363;DHT22;16349;53.672;10.014;2023-04-24T03:20:37;11.10;99.90
29363;DHT22;16349;53.672;10.014;2023-04-24T03:23:06;11.10;99.90
29363;DHT22;16349;53.672;10.014;2023-04-24T03:25:33;11.10;99.90
29363;DHT22;16349;53.672;10.014;2023-04-24T03:28:00;11.00;99.90
29363;DHT22;16349;53.672;10.014;2023-04-24T03:30:51;11.00;99.90
29363;DHT22;16349;53.672;10.014;2023-04-24T03:33:20;11.00;99.90
29363;DHT22;16349;53.672;10.014;2023-04-24T03:35:58;11.00;99.90
29363;DHT22;16349;53.672;10.014;2023-04-24T03:38:28;11.00;99.90
29363;DHT22;16349;53.672;10.014;2023-04-24T03:41:14;10.90;99.90
29363;DHT22;16349;53.672;10.014;2023-04-24T03:43:48;10.90;99.90
29363;DHT22;16349;53.672;10.014;2023-04-24T03:46:15;10.90;99.90
29363;DHT22;16349;53.672;10.014;2023-04-24T03:49:01;10.90;99.90
29363;DHT22;16349;53.672;10.014;2023-04-24T03:51:33;10.90;99.90
29363;DHT22;16349;53.672;10.014;2023-04-24T03:54:10;10.90;99.90
29363;DHT22;16349;53.672;10.014;2023-04-24T03:56:39;10.80;99.90
29363;DHT22;16349;53.672;10.014;2023-04-24T03:59:06;10.80;99.90
29363;DHT22;16349;53.672;10.014;2023-04-24T04:01:35;10.80;99.90
29363;DHT22;16349;53.672;10.014;2023-04-24T04:04:12;10.80;99.90
29363;DHT22;16349;53.672;10.014;2023-04-24T04:06:41;10.70;99.90
29363;DHT22;16349;53.672;10.014;2023-04-24T04:09:10;10.70;99.90
29363;DHT22;16349;53.672;10.014;2023-04-24T04:11:37;10.70;99.90
29363;DHT22;16349;53.672;10.014;2023-04-24T04:14:04;10.60;99.90
29363;DHT22;16349;53.672;10.014;2023-04-24T04:16:33;10.60;99.90
29363;DHT22;16349;53.672;10.014;2023-04-24T04:19:02;10.60;99.90
29363;DHT22;16349;53.672;10.014;2023-04-24T04:21:30;10.60;99.90
29363;DHT22;16349;53.672;10.014;2023-04-24T04:24:09;10.60;99.90
29363;DHT22;16349;53.672;10.014;2023-04-24T04:26:41;10.60;99.90
29363;DHT22;16349;53.672;10.014;2023-04-24T04:29:20;10.60;99.90
29363;DHT22;16349;53.672;10.014;2023-04-24T04:31:49;10.60;99.90
29363;DHT22;16349;53.672;10.014;2023-04-24T04:34:16;10.60;99.90
29363;DHT22;16349;53.672;10.014;2023-04-24T04:36:44;10.60;99.90
29363;DHT22;16349;53.672;10.014;2023-04-24T04:39:33;10.60;99.90
29363;DHT22;16349;53.672;10.014;2023-04-24T04:42:04;10.70;99.90
29363;DHT22;16349;53.672;10.014;2023-04-24T04:44:38;10.60;99.90
29363;DHT22;16349;53.672;10.014;2023-04-24T04:47:06;10.60;99.90
29363;DHT22;16349;53.672;10.014;2023-04-24T04:49:35;10.70;99.90
29363;DHT22;16349;53.672;10.014;2023-04-24T04:52:05;10.60;99.90
29363;DHT22;16349;53.672;10.014;2023-04-24T04:54:33;10.70;99.90
29363;DHT22;16349;53.672;10.014;2023-04-24T04:57:00;10.70;99.90
29363;DHT22;16349;53.672;10.014;2023-04-24T04:59:46;10.70;99.90
29363;DHT22;16349;53.672;10.014;2023-04-24T05:02:22;10.90;99.90
29363;DHT22;16349;53.672;10.014;2023-04-24T05:04:49;10.90;99.90
29363;DHT22;16349;53.672;10.014;2023-04-24T05:07:16;11.00;99.90
29363;DHT22;16349;53.672;10.014;2023-04-24T05:09:50;11.10;99.90
29363;DHT22;16349;53.672;10.014;2023-04-24T05:12:18;11.20;99.90
29363;DHT22;16349;53.672;10.014;2023-04-24T05:14:50;11.20;99.90
29363;DHT22;16349;53.672;10.014;2023-04-24T05:17:18;11.10;99.90
29363;DHT22;16349;53.672;10.014;2023-04-24T05:19:44;11.10;99.90
29363;DHT22;16349;53.672;10.014;2023-04-24T05:22:13;11.10;99.90
29363;DHT22;16349;53.672;10.014;2023-04-24T05:24:47;11.10;99.90
29363;DHT22;16349;53.672;10.014;2023-04-24T05:27:32;11.10;99.90
29363;DHT22;16349;53.672;10.014;2023-04-24T05:29:59;11.10;99.90
29363;DHT22;16349;53.672;10.014;2023-04-24T05:32:26;11.10;99.90
29363;DHT22;16349;53.672;10.014;2023-04-24T05:34:54;11.20;99.90
29363;DHT22;16349;53.672;10.014;2023-04-24T05:37:22;11.20;99.90
29363;DHT22;16349;53.672;10.014;2023-04-24T05:39:49;11.30;99.90
29363;DHT22;16349;53.672;10.014;2023-04-24T05:42:16;11.30;99.90
29363;DHT22;16349;53.672;10.014;2023-04-24T05:44:45;11.40;99.90
29363;DHT22;16349;53.672;10.014;2023-04-24T05:47:11;11.50;99.90
29363;DHT22;16349;53.672;10.014;2023-04-24T05:49:38;11.60;99.90
29363;DHT22;16349;53.672;10.014;2023-04-24T05:52:09;11.60;99.90
29363;DHT22;16349;53.672;10.014;2023-04-24T05:54:37;11.70;99.90
29363;DHT22;16349;53.672;10.014;2023-04-24T05:57:05;11.70;99.90
29363;DHT22;16349;53.672;10.014;2023-04-24T05:59:54;11.80;99.90
29363;DHT22;16349;53.672;10.014;2023-04-24T06:02:21;11.80;99.90
29363;DHT22;16349;53.672;10.014;2023-04-24T06:04:48;11.80;99.90
29363;DHT22;16349;53.672;10.014;2023-04-24T06:07:16;11.80;99.90
29363;DHT22;16349;53.672;10.014;2023-04-24T06:09:44;11.80;99.90
29363;DHT22;16349;53.672;10.014;2023-04-24T06:12:11;11.80;99.90
29363;DHT22;16349;53.672;10.014;2023-04-24T06:14:56;11.80;99.90
29363;DHT22;16349;53.672;10.014;2023-04-24T06:17:48;11.90;99.90
29363;DHT22;16349;53.672;10.014;2023-04-24T06:20:17;11.90;99.90
29363;DHT22;16349;53.672;10.014;2023-04-24T06:22:44;12.00;99.90
29363;DHT22;16349;53.672;10.014;2023-04-24T06:25:11;12.00;99.90
29363;DHT22;16349;53.672;10.014;2023-04-24T06:27:41;12.00;99.90
29363;DHT22;16349;53.672;10.014;2023-04-24T06:30:10;12.10;99.90
29363;DHT22;16349;53.672;10.014;2023-04-24T06:32:38;12.10;99.90
29363;DHT22;16349;53.672;10.014;2023-04-24T06:35:07;12.20;99.90
29363;DHT22;16349;53.672;10.014;2023-04-24T06:37:38;12.30;99.90
29363;DHT22;16349;53.672;10.014;2023-04-24T06:40:06;12.30;99.90
29363;DHT22;16349;53.672;10.014;2023-04-24T06:42:35;12.30;99.90
29363;DHT22;16349;53.672;10.014;2023-04-24T06:45:03;12.40;99.90
29363;DHT22;16349;53.672;10.014;2023-04-24T06:47:31;12.40;99.90
29363;DHT22;16349;53.672;10.014;2023-04-24T06:49:58;12.40;99.90
29363;DHT22;16349;53.672;10.014;2023-04-24T06:52:26;12.40;99.90
29363;DHT22;16349;53.672;10.014;2023-04-24T06:55:00;12.50;99.90
29363;DHT22;16349;53.672;10.014;2023-04-24T06:57:28;12.50;99.90
29363;DHT22;16349;53.672;10.014;2023-04-24T06:59:55;12.60;99.90
29363;DHT22;16349;53.672;10.014;2023-04-24T07:02:25;12.70;99.90
29363;DHT22;16349;53.672;10.014;2023-04-24T07:04:53;12.80;99.90
29363;DHT22;16349;53.672;10.014;2023-04-24T07:07:19;12.90;99.90
29363;DHT22;16349;53.672;10.014;2023-04-24T07:09:46;13.00;99.90
29363;DHT22;16349;53.672;10.014;2023-04-24T07:12:13;13.10;99.90
29363;DHT22;16349;53.672;10.014;2023-04-24T07:14:44;13.20;99.90
29363;DHT22;16349;53.672;10.014;2023-04-24T07:17:11;13.20;99.90
29363;DHT22;16349;53.672;10.014;2023-04-24T07:19:40;13.20;99.90
29363;DHT22;16349;53.672;10.014;2023-04-24T07:22:08;13.10;99.90
29363;DHT22;16349;53.672;10.014;2023-04-24T07:24:37;13.20;99.90
29363;DHT22;16349;53.672;10.014;2023-04-24T07:27:04;13.10;99.90
29363;DHT22;16349;53.672;10.014;2023-04-24T07:29:32;13.20;99.90
29363;DHT22;16349;53.672;10.014;2023-04-24T07:31:58;13.20;99.90
29363;DHT22;16349;53.672;10.014;2023-04-24T07:34:25;13.20;99.90
29363;DHT22;16349;53.672;10.014;2023-04-24T07:36:52;13.10;99.90
29363;DHT22;16349;53.672;10.014;2023-04-24T07:39:20;13.00;99.90
29363;DHT22;16349;53.672;10.014;2023-04-24T07:41:46;13.10;99.90
29363;DHT22;16349;53.672;10.014;2023-04-24T07:44:13;13.20;99.90
29363;DHT22;16349;53.672;10.014;2023-04-24T07:46:40;13.30;99.90
29363;DHT22;16349;53.672;10.014;2023-04-24T07:49:07;13.40;99.90
29363;DHT22;16349;53.672;10.014;2023-04-24T07:51:33;13.40;99.90
29363;DHT22;16349;53.672;10.014;2023-04-24T07:54:03;13.50;99.90
29363;DHT22;16349;53.672;10.014;2023-04-24T07:56:32;13.60;99.90
29363;DHT22;16349;53.672;10.014;2023-04-24T07:58:59;13.70;99.90
29363;DHT22;16349;53.672;10.014;2023-04-24T08:01:26;13.80;99.90
29363;DHT22;16349;53.672;10.014;2023-04-24T08:03:53;13.60;99.90
29363;DHT22;16349;53.672;10.014;2023-04-24T08:06:20;13.50;99.90
29363;DHT22;16349;53.672;10.014;2023-04-24T08:08:47;13.40;99.90
29363;DHT22;16349;53.672;10.014;2023-04-24T08:11:13;13.30;99.90
29363;DHT22;16349;53.672;10.014;2023-04-24T08:13:42;13.30;99.90
29363;DHT22;16349;53.672;10.014;2023-04-24T08:16:08;13.20;99.90
29363;DHT22;16349;53.672;10.014;2023-04-24T08:18:35;13.20;99.90
29363;DHT22;16349;53.672;10.014;2023-04-24T08:21:02;13.20;99.90
29363;DHT22;16349;53.672;10.014;2023-04-24T08:23:29;13.30;99.90
29363;DHT22;16349;53.672;10.014;2023-04-24T08:25:56;13.50;99.90
29363;DHT22;16349;53.672;10.014;2023-04-24T08:28:23;13.60;99.90
29363;DHT22;16349;53.672;10.014;2023-04-24T08:30:51;13.70;99.90
29363;DHT22;16349;53.672;10.014;2023-04-24T08:33:20;13.70;99.90
29363;DHT22;16349;53.672;10.014;2023-04-24T08:35:46;13.60;99.90
29363;DHT22;16349;53.672;10.014;2023-04-24T08:38:13;13.50;99.90
29363;DHT22;16349;53.672;10.014;2023-04-24T08:40:40;13.30;99.90
29363;DHT22;16349;53.672;10.014;2023-04-24T08:43:07;13.30;99.90
29363;DHT22;16349;53.672;10.014;2023-04-24T08:45:34;13.30;99.90
29363;DHT22;16349;53.672;10.014;2023-04-24T08:48:04;13.40;99.90
29363;DHT22;16349;53.672;10.014;2023-04-24T08:50:32;13.40;99.90
29363;DHT22;16349;53.672;10.014;2023-04-24T08:53:01;13.50;99.90
29363;DHT22;16349;53.672;10.014;2023-04-24T08:55:29;13.40;99.90
29363;DHT22;16349;53.672;10.014;2023-04-24T08:57:57;13.40;99.90
29363;DHT22;16349;53.672;10.014;2023-04-24T09:00:25;13.30;99.90
29363;DHT22;16349;53.672;10.014;2023-04-24T09:02:53;13.20;99.90
29363;DHT22;16349;53.672;10.014;2023-04-24T09:05:22;13.20;99.90
29363;DHT22;16349;53.672;10.014;2023-04-24T09:07:53;13.20;99.90
29363;DHT22;16349;53.672;10.014;2023-04-24T09:10:21;13.20;99.90
29363;DHT22;16349;53.672;10.014;2023-04-24T09:12:50;13.40;99.90
29363;DHT22;16349;53.672;10.014;2023-04-24T09:15:18;13.40;99.90
29363;DHT22;16349;53.672;10.014;2023-04-24T09:17:46;13.40;99.90
29363;DHT22;16349;53.672;10.014;2023-04-24T09:20:13;13.40;99.90
29363;DHT22;16349;53.672;10.014;2023-04-24T09:22:42;13.40;99.90
29363;DHT22;16349;53.672;10.014;2023-04-24T09:25:09;13.50;99.90
29363;DHT22;16349;53.672;10.014;2023-04-24T09:27:42;13.50;99.90
29363;DHT22;16349;53.672;10.014;2023-04-24T09:30:11;13.40;99.90
29363;DHT22;16349;53.672;10.014;2023-04-24T09:32:38;13.40;99.90
29363;DHT22;16349;53.672;10.014;2023-04-24T09:35:08;13.50;99.90
29363;DHT22;16349;53.672;10.014;2023-04-24T09:37:36;13.50;99.90
29363;DHT22;16349;53.672;10.014;2023-04-24T09:40:18;13.50;99.90
29363;DHT22;16349;53.672;10.014;2023-04-24T09:42:50;13.40;99.90
29363;DHT22;16349;53.672;10.014;2023-04-24T09:45:17;13.40;99.90
29363;DHT22;16349;53.672;10.014;2023-04-24T09:47:44;13.30;99.90
29363;DHT22;16349;53.672;10.014;2023-04-24T09:50:13;13.30;99.90
29363;DHT22;16349;53.672;10.014;2023-04-24T09:52:41;13.40;99.90
29363;DHT22;16349;53.672;10.014;2023-04-24T09:55:20;13.50;99.90
29363;DHT22;16349;53.672;10.014;2023-04-24T09:57:49;13.60;99.90
29363;DHT22;16349;53.672;10.014;2023-04-24T10:00:22;13.60;99.90
29363;DHT22;16349;53.672;10.014;2023-04-24T10:02:54;13.60;99.90
29363;DHT22;16349;53.672;10.014;2023-04-24T10:05:26;13.60;99.90
29363;DHT22;16349;53.672;10.014;2023-04-24T10:07:57;13.50;99.90
29363;DHT22;16349;53.672;10.014;2023-04-24T10:10:25;13.40;99.90
29363;DHT22;16349;53.672;10.014;2023-04-24T10:12:52;13.40;99.90
29363;DHT22;16349;53.672;10.014;2023-04-24T10:15:20;13.40;99.90
29363;DHT22;16349;53.672;10.014;2023-04-24T10:17:48;13.40;99.90
29363;DHT22;16349;53.672;10.014;2023-04-24T10:20:22;13.30;99.90
29363;DHT22;16349;53.672;10.014;2023-04-24T10:22:51;13.30;99.90
29363;DHT22;16349;53.672;10.014;2023-04-24T10:25:20;13.30;99.90
29363;DHT22;16349;53.672;10.014;2023-04-24T10:27:49;13.20;99.90
29363;DHT22;16349;53.672;10.014;2023-04-24T10:30:18;13.20;99.90
29363;DHT22;16349;53.672;10.014;2023-04-24T10:32:45;13.20;99.90
29363;DHT22;16349;53.672;10.014;2023-04-24T10:35:13;13.20;99.90
29363;DHT22;16349;53.672;10.014;2023-04-24T10:37:44;13.30;99.90
29363;DHT22;16349;53.672;10.014;2023-04-24T10:40:16;13.40;99.90
29363;DHT22;16349;53.672;10.014;2023-04-24T10:42:48;13.40;99.90
29363;DHT22;16349;53.672;10.014;2023-04-24T10:45:19;13.30;99.90
29363;DHT22;16349;53.672;10.014;2023-04-24T10:47:56;13.30;99.90
29363;DHT22;16349;53.672;10.014;2023-04-24T10:50:25;13.40;99.90
29363;DHT22;16349;53.672;10.014;2023-04-24T10:52:52;13.50;99.90
29363;DHT22;16349;53.672;10.014;2023-04-24T10:55:40;13.50;99.90
29363;DHT22;16349;53.672;10.014;2023-04-24T10:58:09;13.50;99.90
29363;DHT22;16349;53.672;10.014;2023-04-24T11:00:37;13.60;99.90
29363;DHT22;16349;53.672;10.014;2023-04-24T11:03:05;13.70;99.90
29363;DHT22;16349;53.672;10.014;2023-04-24T11:05:52;13.60;99.90
29363;DHT22;16349;53.672;10.014;2023-04-24T11:08:24;13.60;99.90
29363;DHT22;16349;53.672;10.014;2023-04-24T11:10:57;13.60;99.90
29363;DHT22;16349;53.672;10.014;2023-04-24T11:14:00;13.70;99.90
29363;DHT22;16349;53.672;10.014;2023-04-24T11:16:20;13.80;99.90
29363;DHT22;16349;53.672;10.014;2023-04-24T11:18:51;13.90;99.90
29363;DHT22;16349;53.672;10.014;2023-04-24T11:21:21;13.90;99.90
29363;DHT22;16349;53.672;10.014;2023-04-24T11:23:48;14.00;99.90
29363;DHT22;16349;53.672;10.014;2023-04-24T11:26:18;14.00;99.90
29363;DHT22;16349;53.672;10.014;2023-04-24T11:28:47;14.00;99.90
29363;DHT22;16349;53.672;10.014;2023-04-24T11:31:33;14.00;99.90
29363;DHT22;16349;53.672;10.014;2023-04-24T11:34:09;14.20;99.90
29363;DHT22;16349;53.672;10.014;2023-04-24T11:36:36;14.30;99.90
29363;DHT22;16349;53.672;10.014;2023-04-24T11:39:04;14.30;99.90
29363;DHT22;16349;53.672;10.014;2023-04-24T11:41:31;14.40;99.90
29363;DHT22;16349;53.672;10.014;2023-04-24T11:43:59;14.40;99.90
29363;DHT22;16349;53.672;10.014;2023-04-24T11:46:28;14.40;99.90
29363;DHT22;16349;53.672;10.014;2023-04-24T11:48:56;14.30;99.90
29363;DHT22;16349;53.672;10.014;2023-04-24T11:51:23;14.40;99.90
29363;DHT22;16349;53.672;10.014;2023-04-24T11:53:51;14.40;99.90
29363;DHT22;16349;53.672;10.014;2023-04-24T11:56:18;14.20;99.90
29363;DHT22;16349;53.672;10.014;2023-04-24T11:58:47;14.10;99.90
29363;DHT22;16349;53.672;10.014;2023-04-24T12:01:15;14.10;99.90
29363;DHT22;16349;53.672;10.014;2023-04-24T12:03:47;14.10;99.90
29363;DHT22;16349;53.672;10.014;2023-04-24T12:06:15;14.10;99.90
29363;DHT22;16349;53.672;10.014;2023-04-24T12:08:46;14.00;99.90
29363;DHT22;16349;53.672;10.014;2023-04-24T12:11:32;13.90;99.90
29363;DHT22;16349;53.672;10.014;2023-04-24T12:14:10;13.80;99.90
29363;DHT22;16349;53.672;10.014;2023-04-24T12:16:39;13.70;99.90
29363;DHT22;16349;53.672;10.014;2023-04-24T12:19:06;13.60;99.90
29363;DHT22;16349;53.672;10.014;2023-04-24T12:21:33;13.70;99.90
29363;DHT22;16349;53.672;10.014;2023-04-24T12:23:59;13.80;99.90
29363;DHT22;16349;53.672;10.014;2023-04-24T12:26:27;13.90;99.90
29363;DHT22;16349;53.672;10.014;2023-04-24T12:28:54;14.00;99.90
29363;DHT22;16349;53.672;10.014;2023-04-24T12:31:21;13.90;99.90
29363;DHT22;16349;53.672;10.014;2023-04-24T12:33:50;13.90;99.90
29363;DHT22;16349;53.672;10.014;2023-04-24T12:36:18;13.90;99.90
29363;DHT22;16349;53.672;10.014;2023-04-24T12:38:52;13.80;99.90
29363;DHT22;16349;53.672;10.014;2023-04-24T12:41:20;13.70;99.90
29363;DHT22;16349;53.672;10.014;2023-04-24T12:43:53;13.70;99.90
29363;DHT22;16349;53.672;10.014;2023-04-24T12:46:21;13.60;99.90
29363;DHT22;16349;53.672;10.014;2023-04-24T12:48:47;13.50;99.90
29363;DHT22;16349;53.672;10.014;2023-04-24T12:51:15;13.40;99.90
29363;DHT22;16349;53.672;10.014;2023-04-24T12:53:42;13.30;99.90
29363;DHT22;16349;53.672;10.014;2023-04-24T12:56:09;13.30;99.90
29363;DHT22;16349;53.672;10.014;2023-04-24T12:58:35;13.30;99.90
29363;DHT22;16349;53.672;10.014;2023-04-24T13:01:02;13.20;99.90
29363;DHT22;16349;53.672;10.014;2023-04-24T13:03:29;13.10;99.90
29363;DHT22;16349;53.672;10.014;2023-04-24T13:05:56;13.00;99.90
29363;DHT22;16349;53.672;10.014;2023-04-24T13:08:24;12.90;99.90
29363;DHT22;16349;53.672;10.014;2023-04-24T13:10:51;12.90;99.90
29363;DHT22;16349;53.672;10.014;2023-04-24T13:13:19;12.90;99.90
29363;DHT22;16349;53.672;10.014;2023-04-24T13:15:46;12.80;99.90
29363;DHT22;16349;53.672;10.014;2023-04-24T13:18:12;12.70;99.90
29363;DHT22;16349;53.672;10.014;2023-04-24T13:20:39;12.70;99.90
29363;DHT22;16349;53.672;10.014;2023-04-24T13:23:07;12.80;99.90
29363;DHT22;16349;53.672;10.014;2023-04-24T13:25:36;12.80;99.90
29363;DHT22;16349;53.672;10.014;2023-04-24T13:28:04;12.80;99.90
29363;DHT22;16349;53.672;10.014;2023-04-24T13:30:31;12.70;99.90
29363;DHT22;16349;53.672;10.014;2023-04-24T13:32:59;12.70;99.90
29363;DHT22;16349;53.672;10.014;2023-04-24T13:35:26;12.70;99.90
29363;DHT22;16349;53.672;10.014;2023-04-24T13:37:52;12.70;99.90
29363;DHT22;16349;53.672;10.014;2023-04-24T13:40:19;12.70;99.90
29363;DHT22;16349;53.672;10.014;2023-04-24T13:42:47;12.70;99.90
29363;DHT22;16349;53.672;10.014;2023-04-24T13:45:14;12.70;99.90
29363;DHT22;16349;53.672;10.014;2023-04-24T13:47:42;12.60;99.90
29363;DHT22;16349;53.672;10.014;2023-04-24T13:50:09;12.60;99.90
29363;DHT22;16349;53.672;10.014;2023-04-24T13:52:37;12.50;99.90
29363;DHT22;16349;53.672;10.014;2023-04-24T13:55:05;12.50;99.90
29363;DHT22;16349;53.672;10.014;2023-04-24T13:57:33;12.40;99.90
29363;DHT22;16349;53.672;10.014;2023-04-24T14:00:01;12.40;99.90
29363;DHT22;16349;53.672;10.014;2023-04-24T14:02:32;12.40;99.90
29363;DHT22;16349;53.672;10.014;2023-04-24T14:04:59;12.40;99.90
29363;DHT22;16349;53.672;10.014;2023-04-24T14:07:26;12.30;99.90
29363;DHT22;16349;53.672;10.014;2023-04-24T14:09:54;12.30;99.90
29363;DHT22;16349;53.672;10.014;2023-04-24T14:12:21;12.40;99.90
29363;DHT22;16349;53.672;10.014;2023-04-24T14:14:47;12.40;99.90
29363;DHT22;16349;53.672;10.014;2023-04-24T14:17:16;12.50;99.90
29363;DHT22;16349;53.672;10.014;2023-04-24T14:19:43;12.50;99.90
29363;DHT22;16349;53.672;10.014;2023-04-24T14:22:10;12.50;99.90
29363;DHT22;16349;53.672;10.014;2023-04-24T14:24:36;12.50;99.90
29363;DHT22;16349;53.672;10.014;2023-04-24T14:27:03;12.50;99.90
29363;DHT22;16349;53.672;10.014;2023-04-24T14:29:30;12.60;99.90
29363;DHT22;16349;53.672;10.014;2023-04-24T14:31:56;12.50;99.90
29363;DHT22;16349;53.672;10.014;2023-04-24T14:34:24;12.40;99.90
29363;DHT22;16349;53.672;10.014;2023-04-24T14:36:52;12.30;99.90
29363;DHT22;16349;53.672;10.014;2023-04-24T14:39:19;12.30;99.90
29363;DHT22;16349;53.672;10.014;2023-04-24T14:41:46;12.20;99.90
29363;DHT22;16349;53.672;10.014;2023-04-24T14:44:13;11.90;99.90
29363;DHT22;16349;53.672;10.014;2023-04-24T14:46:40;11.80;99.90
29363;DHT22;16349;53.672;10.014;2023-04-24T14:49:08;11.70;99.90
29363;DHT22;16349;53.672;10.014;2023-04-24T14:51:36;11.50;99.90
29363;DHT22;16349;53.672;10.014;2023-04-24T14:54:03;11.30;99.90
29363;DHT22;16349;53.672;10.014;2023-04-24T14:56:30;11.20;99.90
29363;DHT22;16349;53.672;10.014;2023-04-24T14:58:56;11.10;99.90
29363;DHT22;16349;53.672;10.014;2023-04-24T15:03:50;10.70;99.90
29363;DHT22;16349;53.672;10.014;2023-04-24T15:06:17;10.70;99.90
29363;DHT22;16349;53.672;10.014;2023-04-24T15:08:45;10.60;99.90
29363;DHT22;16349;53.672;10.014;2023-04-24T15:11:12;10.60;99.90
29363;DHT22;16349;53.672;10.014;2023-04-24T15:13:39;10.60;99.90
29363;DHT22;16349;53.672;10.014;2023-04-24T15:16:06;10.60;99.90
29363;DHT22;16349;53.672;10.014;2023-04-24T15:18:32;10.60;99.90
29363;DHT22;16349;53.672;10.014;2023-04-24T15:20:59;10.60;99.90
29363;DHT22;16349;53.672;10.014;2023-04-24T15:23:26;10.50;99.90
29363;DHT22;16349;53.672;10.014;2023-04-24T15:25:54;10.50;99.90
29363;DHT22;16349;53.672;10.014;2023-04-24T15:28:21;10.40;99.90